»·PEaware :: SWA153 KLAS-KSFO

SWA153 :: KLAS-KSFO

FLIGHT INFORMATION

Flight Status: Arrived
Operator:
Southwest Airlines
More flights by this operator :: More flights under this callsign
Pilot: Michael F. (10210)
Aircraft: BOEING 737-800
(B738)
More flights by this aircraft type
Origin: KLAS McCarran Intl
United States
Destination: KSFO San Francisco Intl
United States
More flights between these airports :: More routes between these airports
Route: +SHEAD1 OAL INYOE DYAMD3
File this flight plan on PilotEdge
Remarks:
Altitude:
(Current/Filed)
36,000ft
Speed:
(Current/Filed)
460kts
Departed: 27-Nov-17 05:55 PM
Arrived: 27-Nov-17 07:08 PM
Distance/Time
Traveled:
359nm/1:13
Distance/Time
To Go:
Arrived

Flight Plot

Page will automatically refresh every two minutes.

Flight plan parsing failed; only flown route is shown


Map Options




Map Legend


Flown Route
Filed Route
Departure Airport
Arrival Airport
Navaid (VOR, NDB)
Fix

Horizontal Profiles

Position Reports

Time Latitude Longitude Heading Altitude Ground
Speed
27-Nov-17 17:48 36.079200 -115.147900 0 2122ft 0kts
27-Nov-17 17:49 36.079241 -115.147886 157 2122ft 0kts
27-Nov-17 17:50 36.079241 -115.147886 157 2122ft 0kts
27-Nov-17 17:51 36.079030 -115.147776 156 2122ft 7kts
27-Nov-17 17:52 36.077785 -115.149686 273 2122ft 17kts
27-Nov-17 17:53 36.077935 -115.155692 270 2122ft 20kts
27-Nov-17 17:54 36.077933 -115.161963 270 2122ft 15kts
27-Nov-17 17:55 36.077185 -115.163414 203 2122ft 0kts
27-Nov-17 17:56 36.077185 -115.163414 203 2122ft 0kts
27-Nov-17 17:57 36.077183 -115.163414 203 2122ft 0kts
27-Nov-17 17:58 36.073839 -115.166124 283 2122ft 15kts
27-Nov-17 17:59 36.075529 -115.166752 24 2123ft 30kts
27-Nov-17 18:00 36.108641 -115.147292 24 3080ft 182kts
27-Nov-17 18:01 36.143191 -115.173705 269 5718ft 214kts
27-Nov-17 18:02 36.119662 -115.252224 253 8413ft 257kts
27-Nov-17 18:03 36.063706 -115.313696 207 9018ft 303kts
27-Nov-17 18:04 35.985726 -115.353435 206 8998ft 302kts
27-Nov-17 18:05 35.908344 -115.394273 215 8990ft 298kts
27-Nov-17 18:06 35.885882 -115.479387 278 11242ft 269kts
27-Nov-17 18:07 35.889157 -115.583592 275 12874ft 334kts
27-Nov-17 18:08 35.891473 -115.699453 277 15965ft 340kts
27-Nov-17 18:09 35.893423 -115.816891 278 18655ft 348kts
27-Nov-17 18:10 35.897023 -115.939004 289 20779ft 355kts
27-Nov-17 18:11 35.954825 -116.035072 316 22642ft 358kts
27-Nov-17 18:12 36.027879 -116.122065 317 24340ft 371kts
27-Nov-17 18:13 36.104419 -116.211381 316 25916ft 383kts
27-Nov-17 18:14 36.183135 -116.302534 316 27365ft 392kts
27-Nov-17 18:15 36.263848 -116.395761 316 28621ft 402kts
27-Nov-17 18:16 36.346221 -116.491729 316 29916ft 407kts
27-Nov-17 18:17 36.427891 -116.587248 316 31495ft 402kts
27-Nov-17 18:18 36.508912 -116.682096 316 32903ft 399kts
27-Nov-17 18:19 36.594166 -116.770019 325 34206ft 398kts
27-Nov-17 18:20 36.688499 -116.842305 326 35273ft 399kts
27-Nov-17 18:21 36.783455 -116.914843 325 36089ft 402kts
27-Nov-17 18:22 36.878512 -116.987465 326 36101ft 398kts
27-Nov-17 18:23 36.972734 -117.059416 326 36108ft 398kts
27-Nov-17 18:24 37.067182 -117.131729 326 36121ft 396kts
27-Nov-17 18:25 37.161002 -117.204006 327 36129ft 396kts
27-Nov-17 18:26 37.254436 -117.276320 327 36135ft 394kts
27-Nov-17 18:27 37.349613 -117.344931 331 36140ft 394kts
27-Nov-17 18:28 37.447070 -117.407084 331 36161ft 392kts
27-Nov-17 18:29 37.544125 -117.469938 331 36166ft 390kts
27-Nov-17 18:30 37.640518 -117.532592 332 36168ft 389kts
27-Nov-17 18:31 37.736443 -117.595026 332 36164ft 388kts
27-Nov-17 18:32 37.832368 -117.657794 332 36166ft 386kts
27-Nov-17 18:33 37.927513 -117.720445 332 36168ft 386kts
27-Nov-17 18:34 37.986105 -117.829022 279 36173ft 417kts
27-Nov-17 18:35 37.980412 -117.977972 271 36173ft 426kts
27-Nov-17 18:36 37.967668 -118.102281 270 36174ft 427kts
27-Nov-17 18:37 37.949289 -118.276229 270 36175ft 427kts
27-Nov-17 18:38 37.933436 -118.425836 270 36194ft 426kts
27-Nov-17 18:39 37.919827 -118.549712 269 36210ft 426kts
27-Nov-17 18:40 37.900261 -118.723688 268 36221ft 427kts
27-Nov-17 18:41 37.883373 -118.872189 268 36231ft 426kts
27-Nov-17 18:42 37.869079 -118.995834 268 36235ft 427kts
27-Nov-17 18:43 37.851655 -119.144763 268 36233ft 427kts
27-Nov-17 18:44 37.834555 -119.293353 268 36228ft 428kts
27-Nov-17 18:45 37.817203 -119.442072 267 36223ft 427kts
27-Nov-17 18:46 37.799466 -119.591302 267 36218ft 429kts
27-Nov-17 18:47 37.781545 -119.740127 267 36213ft 429kts
27-Nov-17 18:48 37.763447 -119.888731 268 34171ft 429kts
27-Nov-17 18:49 37.745393 -120.036718 268 32050ft 418kts
27-Nov-17 18:50 37.727748 -120.179266 268 30162ft 404kts
27-Nov-17 18:51 37.710269 -120.317149 268 28355ft 390kts
27-Nov-17 18:52 37.693905 -120.450251 268 26549ft 379kts
27-Nov-17 18:53 37.678796 -120.580427 267 24629ft 371kts
27-Nov-17 18:54 37.663686 -120.707838 267 22771ft 361kts
27-Nov-17 18:55 37.648983 -120.831257 267 20991ft 353kts
27-Nov-17 18:56 37.634446 -120.950984 266 19489ft 341kts
27-Nov-17 18:57 37.619024 -121.068665 265 18037ft 337kts
27-Nov-17 18:58 37.603419 -121.184313 265 16611ft 333kts
27-Nov-17 18:59 37.588750 -121.298682 267 15358ft 322kts
27-Nov-17 19:00 37.576511 -121.405600 267 14164ft 303kts
27-Nov-17 19:01 37.564163 -121.511085 267 12634ft 307kts
27-Nov-17 19:02 37.551877 -121.615655 266 11304ft 296kts
27-Nov-17 19:03 37.529979 -121.712864 256 10017ft 286kts
27-Nov-17 19:04 37.506635 -121.808236 254 8856ft 283kts
27-Nov-17 19:05 37.491186 -121.899417 275 8190ft 240kts
27-Nov-17 19:06 37.496907 -121.979038 277 7180ft 226kts
27-Nov-17 19:07 37.501414 -122.058812 277 5457ft 229kts
27-Nov-17 19:08 37.518536 -122.132668 302 3895ft 207kts
27-Nov-17 19:09 37.544025 -122.191775 300 2886ft 175kts
27-Nov-17 19:10 37.566093 -122.244200 298 1996ft 164kts
27-Nov-17 19:11 37.586938 -122.293813 296 1156ft 151kts
27-Nov-17 19:12 37.605974 -122.338819 296 347ft 139kts
27-Nov-17 19:13 37.621084 -122.375240 299 21ft 26kts
27-Nov-17 19:14 37.622278 -122.381295 272 21ft 15kts
27-Nov-17 19:15 37.621998 -122.385243 217 21ft 0kts

Navigation Log

Ident Type
Flight plan parsing failed, navigation log unavailable